createdAt,value
2019-04-26T00:00:28.427Z,8.00
2019-04-26T00:01:28.430Z,13.50
2019-04-26T00:02:28.409Z,7.60
2019-04-26T00:03:28.426Z,7.60
2019-04-26T00:04:28.409Z,7.10
2019-04-26T00:05:34.453Z,8.90
2019-04-26T00:06:29.366Z,7.70
2019-04-26T00:07:28.352Z,7.40
2019-04-26T00:08:28.334Z,7.30
2019-04-26T00:09:28.377Z,6.60
2019-04-26T00:10:28.316Z,9.20
2019-04-26T00:11:28.306Z,6.00
2019-04-26T00:12:28.297Z,5.80
2019-04-26T00:13:28.299Z,7.00
2019-04-26T00:14:28.311Z,5.80
2019-04-26T00:15:28.312Z,6.50
2019-04-26T00:16:28.251Z,11.90
2019-04-26T00:17:28.252Z,8.60
2019-04-26T00:18:28.238Z,8.20
2019-04-26T00:19:28.245Z,7.60
2019-04-26T00:20:28.216Z,9.80
2019-04-26T00:21:28.194Z,6.60
2019-04-26T00:22:28.187Z,6.10
2019-04-26T00:23:28.171Z,9.10
2019-04-26T00:24:28.546Z,5.60
2019-04-26T00:25:28.185Z,6.30
2019-04-26T00:26:28.142Z,6.40
2019-04-26T00:27:28.121Z,6.00
2019-04-26T00:28:28.119Z,5.80
2019-04-26T00:29:28.100Z,6.50
2019-04-26T00:30:28.110Z,7.30
2019-04-26T00:31:28.072Z,7.80
2019-04-26T00:32:28.061Z,7.50
2019-04-26T00:33:28.058Z,7.80
2019-04-26T00:34:28.052Z,6.30
2019-04-26T00:35:28.052Z,6.60
2019-04-26T00:36:28.018Z,7.40
2019-04-26T00:37:28.008Z,7.10
2019-04-26T00:38:27.994Z,5.60
2019-04-26T00:39:27.989Z,7.30
2019-04-26T00:40:27.996Z,7.30
2019-04-26T00:41:27.976Z,6.30
2019-04-26T00:42:27.950Z,7.30
2019-04-26T00:43:27.942Z,6.40
2019-04-26T00:44:27.999Z,5.80
2019-04-26T00:45:27.944Z,7.70
2019-04-26T00:46:27.916Z,6.90
2019-04-26T00:47:27.892Z,8.40
2019-04-26T00:48:27.883Z,7.60
2019-04-26T00:49:27.894Z,6.50
2019-04-26T00:50:27.880Z,6.30
2019-04-26T00:51:27.848Z,8.60
2019-04-26T00:52:27.845Z,8.60
2019-04-26T00:53:27.830Z,6.40
2019-04-26T00:54:27.824Z,5.70
2019-04-26T00:55:27.834Z,8.30
2019-04-26T00:56:27.811Z,7.80
2019-04-26T00:57:27.786Z,7.20
2019-04-26T00:58:27.778Z,9.70
2019-04-26T00:59:27.759Z,7.50
2019-04-26T01:00:27.803Z,7.80
2019-04-26T01:01:27.736Z,10.10
2019-04-26T01:02:27.746Z,7.80
2019-04-26T01:03:27.720Z,6.40
2019-04-26T01:04:27.726Z,9.10
2019-04-26T01:05:27.726Z,6.30
2019-04-26T01:06:27.684Z,8.20
2019-04-26T01:07:27.681Z,8.60
2019-04-26T01:08:27.656Z,7.00
2019-04-26T01:09:27.648Z,5.90
2019-04-26T01:10:27.702Z,7.70
2019-04-26T01:11:27.623Z,7.90
2019-04-26T01:12:27.613Z,9.50
2019-04-26T01:13:27.615Z,11.00
2019-04-26T01:14:27.592Z,10.40
2019-04-26T01:15:27.597Z,6.70
2019-04-26T01:16:27.568Z,8.80
2019-04-26T01:17:27.554Z,9.10
2019-04-26T01:18:27.549Z,7.90
2019-04-26T01:19:27.534Z,7.20
2019-04-26T01:20:27.539Z,7.00
2019-04-26T01:21:27.531Z,8.60
2019-04-26T01:22:27.650Z,10.50
2019-04-26T01:23:27.486Z,7.70
2019-04-26T01:24:27.494Z,7.90
2019-04-26T01:25:27.498Z,8.70
2019-04-26T01:26:27.488Z,8.50
2019-04-26T01:27:27.737Z,7.30
2019-04-26T01:28:27.941Z,9.60
2019-04-26T01:29:27.987Z,6.90
2019-04-26T01:30:27.946Z,8.60
2019-04-26T01:31:28.175Z,9.90
2019-04-26T01:32:28.284Z,7.10
2019-04-26T01:33:28.194Z,12.60
2019-04-26T01:34:28.251Z,7.60
2019-04-26T01:35:28.367Z,7.40
2019-04-26T07:10:38.674Z,26.10
2019-04-26T07:11:38.646Z,19.90
2019-04-26T07:12:38.630Z,18.80
2019-04-26T07:13:38.624Z,18.10
2019-04-26T07:14:38.611Z,18.00
2019-04-26T07:15:38.700Z,19.10
2019-04-26T07:16:38.593Z,20.10
2019-04-26T07:17:38.569Z,18.30
2019-04-26T07:18:38.556Z,18.90
2019-04-26T07:19:38.549Z,16.90
2019-04-26T07:20:38.562Z,17.30
2019-04-26T07:21:38.527Z,15.90
2019-04-26T07:22:38.521Z,13.60
2019-04-26T07:23:38.499Z,18.10
2019-04-26T07:24:38.492Z,16.80
2019-04-26T07:25:38.545Z,21.20
2019-04-26T07:26:38.469Z,18.30
2019-04-26T07:27:38.494Z,16.90
2019-04-26T07:28:38.493Z,17.10
2019-04-26T07:29:38.434Z,18.70
2019-04-26T07:30:38.419Z,18.00
2019-04-26T07:31:38.449Z,15.90
2019-04-26T07:32:38.406Z,18.70
2019-04-26T07:33:38.395Z,18.90
2019-04-26T07:34:38.378Z,16.90
2019-04-26T07:35:38.362Z,17.00
2019-04-26T07:36:38.354Z,22.90
2019-04-26T07:37:38.361Z,16.70
2019-04-26T07:38:38.334Z,18.70
2019-04-26T07:39:38.334Z,16.10
2019-04-26T07:40:38.307Z,15.10
2019-04-26T07:41:38.354Z,17.20
2019-04-26T07:42:38.308Z,13.40
2019-04-26T07:43:38.277Z,20.80
2019-04-26T07:44:38.270Z,17.20
2019-04-26T07:45:38.269Z,21.30
2019-04-26T07:46:38.279Z,16.40
2019-04-26T07:47:38.232Z,16.10
2019-04-26T07:48:38.228Z,15.00
2019-04-26T07:49:38.209Z,18.90
2019-04-26T07:50:38.211Z,17.60
2019-04-26T07:51:38.218Z,15.50
2019-04-26T07:52:38.172Z,17.20
2019-04-26T07:53:38.170Z,17.00
2019-04-26T07:54:38.155Z,18.90
2019-04-26T07:55:38.160Z,17.10
2019-04-26T07:56:38.161Z,18.10
2019-04-26T07:57:38.118Z,20.50
2019-04-26T07:58:38.113Z,21.00
2019-04-26T07:59:38.112Z,19.60
2019-04-26T08:00:44.771Z,15.70
2019-04-26T08:01:39.097Z,17.10
2019-04-26T08:02:38.066Z,14.80
2019-04-26T08:03:38.055Z,19.50
2019-04-26T08:04:38.039Z,14.00
2019-04-26T08:05:38.044Z,18.20
2019-04-26T08:06:38.055Z,24.50
2019-04-26T08:07:38.021Z,16.70
2019-04-26T08:08:38.049Z,15.50
2019-04-26T08:09:37.984Z,15.50
2019-04-26T08:10:37.970Z,19.50
2019-04-26T08:11:37.992Z,15.90
2019-04-26T08:12:37.956Z,18.30
2019-04-26T08:13:37.950Z,19.60
2019-04-26T08:14:37.929Z,16.30
2019-04-26T08:15:37.916Z,18.40
2019-04-26T08:16:37.949Z,18.60
2019-04-26T08:17:37.894Z,17.20
2019-04-26T08:18:37.895Z,17.50
2019-04-26T08:19:37.866Z,23.70
2019-04-26T08:20:37.856Z,19.80
2019-04-26T08:21:37.865Z,17.20
2019-04-26T08:22:37.841Z,17.20
2019-04-26T08:23:41.330Z,17.10
2019-04-26T08:24:37.822Z,19.90
2019-04-26T08:25:37.808Z,17.90
2019-04-26T08:26:37.804Z,19.00
2019-04-26T08:27:37.777Z,14.60
2019-04-26T08:28:37.783Z,16.10
2019-04-26T08:29:37.764Z,18.20
2019-04-26T08:30:40.671Z,16.40
2019-04-26T08:31:38.764Z,15.30
2019-04-26T08:32:37.723Z,14.70
2019-04-26T08:33:40.464Z,19.30
2019-04-26T08:34:38.702Z,16.40
2019-04-26T08:35:37.704Z,22.50
2019-04-26T08:36:37.706Z,18.00
2019-04-26T08:37:37.996Z,20.90
2019-04-26T08:38:37.656Z,17.30
2019-04-26T08:39:45.658Z,18.40
2019-04-26T08:40:38.643Z,19.90
2019-04-26T08:41:39.154Z,19.60
2019-04-26T08:42:37.614Z,18.10
2019-04-26T08:43:37.604Z,15.80
2019-04-26T08:44:37.588Z,15.40
2019-04-26T08:45:37.592Z,16.60
2019-04-26T08:46:37.587Z,17.60
2019-04-26T08:47:37.580Z,20.90
2019-04-26T08:48:37.551Z,16.00
2019-04-26T08:49:39.202Z,15.00
2019-04-26T08:50:37.526Z,14.80
2019-04-26T08:51:37.537Z,14.70
2019-04-26T08:52:37.520Z,13.60
2019-04-26T08:53:37.504Z,16.60
2019-04-26T08:54:37.475Z,16.80
2019-04-26T08:55:37.475Z,21.00
2019-04-26T08:56:37.676Z,16.30
2019-04-26T08:57:37.441Z,18.90
2019-04-26T08:58:37.440Z,13.90
2019-04-26T08:59:37.438Z,20.60
2019-04-26T09:00:37.410Z,16.20
2019-04-26T09:01:37.417Z,16.80
2019-04-26T09:02:37.397Z,18.30
2019-04-26T09:03:37.391Z,16.20
2019-04-26T09:04:37.376Z,13.80
2019-04-26T09:05:37.349Z,19.00
2019-04-26T09:06:37.365Z,19.70
2019-04-26T09:07:37.330Z,18.80
2019-04-26T09:08:39.225Z,14.10
2019-04-26T09:09:38.490Z,18.70
2019-04-26T09:10:39.342Z,18.00
2019-04-26T09:11:38.360Z,16.30
2019-04-26T09:12:37.385Z,19.90
2019-04-26T09:13:37.267Z,17.90
2019-04-26T09:14:37.253Z,22.80
2019-04-26T09:15:37.248Z,20.50
2019-04-26T09:16:49.583Z,16.10
2019-04-26T09:17:38.390Z,19.30
2019-04-26T09:18:43.730Z,16.90
2019-04-26T09:19:38.209Z,19.00
2019-04-26T09:20:38.510Z,18.00
2019-04-26T09:21:38.203Z,20.30
2019-04-26T09:22:37.164Z,16.50
2019-04-26T09:23:40.259Z,15.30
2019-04-26T09:24:37.160Z,16.20
2019-04-26T09:25:39.271Z,16.40
2019-04-26T09:26:37.145Z,18.60
2019-04-26T09:27:37.119Z,16.80
2019-04-26T09:28:37.362Z,18.30
2019-04-26T09:29:37.106Z,18.40
2019-04-26T09:30:38.545Z,19.40
2019-04-26T09:31:37.086Z,17.70
2019-04-26T09:32:37.053Z,17.60
2019-04-26T09:33:37.464Z,15.00
2019-04-26T09:34:41.315Z,17.30
2019-04-26T09:35:38.032Z,17.80
2019-04-26T09:36:37.041Z,19.70
2019-04-26T09:37:36.997Z,23.00
2019-04-26T09:38:36.996Z,20.80
2019-04-26T09:39:41.601Z,17.70
2019-04-26T09:40:37.967Z,18.30
2019-04-26T09:41:36.970Z,19.60
2019-04-26T09:42:39.265Z,14.90
2019-04-26T09:43:36.926Z,17.20
2019-04-26T09:44:37.614Z,18.60
2019-04-26T09:45:36.904Z,19.40
2019-04-26T09:46:36.906Z,22.70
2019-04-26T09:47:36.883Z,18.60
2019-04-26T09:48:36.915Z,16.90
2019-04-26T09:49:37.334Z,17.10
2019-04-26T09:50:36.853Z,13.80
2019-04-26T09:51:39.062Z,20.80
2019-04-26T09:52:36.850Z,17.30
2019-04-26T09:53:39.581Z,18.90
2019-04-26T09:54:37.806Z,16.50
2019-04-26T09:55:36.808Z,20.50
2019-04-26T09:56:36.803Z,19.20
2019-04-26T09:57:36.782Z,17.30
2019-04-26T09:58:36.772Z,22.00
2019-04-26T09:59:40.085Z,17.50
2019-04-26T10:00:36.738Z,20.00
2019-04-26T10:01:36.747Z,20.80
2019-04-26T10:02:36.715Z,19.90
2019-04-26T10:03:36.702Z,19.90
2019-04-26T10:04:36.705Z,16.60
2019-04-26T10:05:36.685Z,15.70
2019-04-26T10:06:36.692Z,17.00
2019-04-26T10:07:37.513Z,18.10
2019-04-26T10:08:36.656Z,21.10
2019-04-26T10:09:36.634Z,15.30
2019-04-26T10:10:36.622Z,17.80
2019-04-26T10:11:39.614Z,17.70
2019-04-26T10:12:36.603Z,20.20
2019-04-26T10:13:36.626Z,23.20
2019-04-26T10:14:36.639Z,16.40
2019-04-26T10:15:38.950Z,19.50
2019-04-26T10:16:37.715Z,20.20
2019-04-26T10:17:36.596Z,16.80
2019-04-26T10:18:36.535Z,16.40
2019-04-26T10:19:36.517Z,18.50
2019-04-26T10:20:36.512Z,17.40
2019-04-26T10:21:36.575Z,21.10
2019-04-26T10:22:36.489Z,20.60
2019-04-26T10:23:36.480Z,16.90
2019-04-26T10:24:36.470Z,17.10
2019-04-26T10:25:36.462Z,18.40
2019-04-26T10:26:36.461Z,20.50
2019-04-26T10:27:40.781Z,16.80
2019-04-26T10:28:36.443Z,15.10
2019-04-26T10:29:36.437Z,19.10
2019-04-26T10:30:38.453Z,16.60
2019-04-26T10:31:37.407Z,27.60
2019-04-26T10:32:36.412Z,17.70
2019-04-26T10:33:36.751Z,15.00
2019-04-26T10:34:37.177Z,17.80
2019-04-26T10:35:36.352Z,18.60
2019-04-26T10:36:36.414Z,16.40
2019-04-26T10:37:39.711Z,18.00
2019-04-26T10:38:36.310Z,19.60
2019-04-26T10:39:37.040Z,14.60
2019-04-26T10:40:36.294Z,17.20
2019-04-26T10:41:36.312Z,15.10
2019-04-26T10:42:36.306Z,17.00
2019-04-26T10:43:36.262Z,17.80
2019-04-26T10:44:39.950Z,12.60
2019-04-26T10:45:36.243Z,17.50
2019-04-26T10:46:36.275Z,14.00
2019-04-26T10:47:38.384Z,20.00
2019-04-26T10:48:36.227Z,15.70
2019-04-26T10:49:36.200Z,14.30
2019-04-26T10:50:36.195Z,15.20
2019-04-26T10:51:38.712Z,17.50
2019-04-26T10:52:37.169Z,17.00
2019-04-26T10:53:36.183Z,16.50
2019-04-26T10:54:36.891Z,16.80
2019-04-26T10:55:36.142Z,17.50
2019-04-26T10:56:36.154Z,15.30
2019-04-26T10:57:36.122Z,16.50
2019-04-26T10:58:37.647Z,19.10
2019-04-26T10:59:39.988Z,13.80
2019-04-26T11:00:37.093Z,15.30
2019-04-26T11:01:36.101Z,13.10
2019-04-26T11:02:36.079Z,14.10
2019-04-26T11:03:36.080Z,15.40
2019-04-26T11:04:37.369Z,16.60
2019-04-26T11:05:36.073Z,14.00
2019-04-26T11:06:36.088Z,14.80
2019-04-26T11:07:36.042Z,13.10
2019-04-26T11:08:36.020Z,12.50
2019-04-26T11:09:36.020Z,14.50
2019-04-26T11:10:47.910Z,12.30
2019-04-26T11:11:37.068Z,15.60
2019-04-26T11:12:36.000Z,14.70
2019-04-26T11:13:36.002Z,18.20
2019-04-26T11:14:35.982Z,18.80
2019-04-26T11:15:35.971Z,18.20
2019-04-26T11:16:37.192Z,15.00
2019-04-26T11:17:35.963Z,14.10
2019-04-26T11:18:35.942Z,14.20
2019-04-26T11:19:36.635Z,19.20
2019-04-26T11:20:35.932Z,15.80
2019-04-26T11:21:36.077Z,13.20
2019-04-26T11:22:37.576Z,14.70
2019-04-26T11:23:35.902Z,16.50
2019-04-26T11:24:35.886Z,15.90
2019-04-26T11:25:35.888Z,14.50
2019-04-26T11:26:36.229Z,15.00
2019-04-26T11:27:35.865Z,18.30
2019-04-26T11:28:35.868Z,16.50
2019-04-26T11:29:35.853Z,12.70
2019-04-26T11:30:35.855Z,15.00
2019-04-26T11:31:35.865Z,13.20
2019-04-26T11:32:36.751Z,12.00
2019-04-26T11:33:44.753Z,15.50
2019-04-26T11:34:36.809Z,12.50
2019-04-26T11:35:35.917Z,16.40
2019-04-26T11:36:37.563Z,13.60
2019-04-26T11:37:36.789Z,12.90
2019-04-26T11:38:35.800Z,13.60
2019-04-26T11:39:36.542Z,14.10
2019-04-26T11:40:35.802Z,13.00
2019-04-26T11:41:37.632Z,12.60
2019-04-26T11:42:35.756Z,15.50
2019-04-26T11:43:35.741Z,12.50
2019-04-26T11:44:35.733Z,11.90
2019-04-26T11:45:35.721Z,13.30
2019-04-26T11:46:44.654Z,13.00
2019-04-26T11:47:37.202Z,13.10
2019-04-26T11:48:36.713Z,14.60
2019-04-26T11:49:37.281Z,16.30
2019-04-26T11:50:36.681Z,9.90
2019-04-26T11:51:35.707Z,15.00
2019-04-26T11:52:37.222Z,11.30
2019-04-26T11:53:35.652Z,11.80
2019-04-26T11:54:35.641Z,14.20
2019-04-26T11:55:35.644Z,15.70
2019-04-26T11:56:37.601Z,12.50
2019-04-26T11:57:35.622Z,12.50
2019-04-26T11:58:35.613Z,14.10
2019-04-26T11:59:35.603Z,14.80
2019-04-26T12:00:35.592Z,11.60
2019-04-26T12:01:36.666Z,16.50
2019-04-26T12:02:35.686Z,13.70
2019-04-26T12:03:35.560Z,12.60
2019-04-26T12:04:35.554Z,12.00
2019-04-26T12:05:35.541Z,12.40
2019-04-26T12:06:35.556Z,9.80
2019-04-26T12:07:35.525Z,9.80
2019-04-26T12:08:35.519Z,10.50
2019-04-26T12:09:35.502Z,13.30
2019-04-26T12:10:35.495Z,18.70
2019-04-26T12:11:35.507Z,18.80
2019-04-26T12:12:35.471Z,13.70
2019-04-26T12:13:35.488Z,9.50
2019-04-26T12:14:35.478Z,11.00
2019-04-26T12:15:39.121Z,14.60
2019-04-26T12:16:47.048Z,13.60
2019-04-26T12:17:36.766Z,12.70
2019-04-26T12:18:35.423Z,12.00
2019-04-26T12:19:35.405Z,10.40
2019-04-26T12:20:35.416Z,14.40
2019-04-26T12:21:35.381Z,10.10
2019-04-26T12:22:35.417Z,15.50
2019-04-26T12:23:35.363Z,11.10
2019-04-26T12:24:35.348Z,11.30
2019-04-26T12:25:38.781Z,12.80
2019-04-26T12:26:42.558Z,12.60
2019-04-26T12:27:36.521Z,13.10
2019-04-26T12:28:36.352Z,11.60
2019-04-26T12:29:35.295Z,12.50
2019-04-26T12:30:35.302Z,12.70
2019-04-26T12:31:35.277Z,14.90
2019-04-26T12:32:35.274Z,16.80
2019-04-26T12:33:39.186Z,11.60
2019-04-26T12:34:36.252Z,16.90
2019-04-26T12:35:35.251Z,13.10
2019-04-26T12:36:35.233Z,13.20
2019-04-26T12:37:35.240Z,15.10
2019-04-26T12:38:35.194Z,15.50
2019-04-26T12:39:36.771Z,10.90
2019-04-26T12:40:35.176Z,10.00
2019-04-26T12:41:40.315Z,14.30
2019-04-26T12:42:36.173Z,11.80
2019-04-26T12:43:35.150Z,12.10
2019-04-26T12:44:36.448Z,11.50
2019-04-26T12:45:35.122Z,13.20
2019-04-26T12:46:35.128Z,10.80
2019-04-26T12:47:38.603Z,15.20
2019-04-26T12:48:35.126Z,13.70
2019-04-26T12:49:35.467Z,11.30
2019-04-26T12:50:37.650Z,12.40
2019-04-26T12:51:35.063Z,11.70
2019-04-26T12:52:37.380Z,13.30
2019-04-26T12:53:35.037Z,11.80
2019-04-26T12:54:35.031Z,12.70
2019-04-26T12:55:35.021Z,10.60
2019-04-26T12:56:35.002Z,12.90
2019-04-26T12:57:36.434Z,11.40
2019-04-26T12:58:36.080Z,8.50
2019-04-26T12:59:43.925Z,12.50
2019-04-26T13:00:37.438Z,10.70
2019-04-26T13:01:35.013Z,12.30
2019-04-26T13:02:34.976Z,8.50
2019-04-26T13:03:34.928Z,8.80
2019-04-26T13:04:36.211Z,7.40
2019-04-26T13:05:34.922Z,6.90
2019-04-26T13:06:34.919Z,9.00
2019-04-26T13:07:34.974Z,9.00
2019-04-26T13:08:34.875Z,13.90
2019-04-26T13:09:34.866Z,8.50
2019-04-26T13:10:35.448Z,9.10
2019-04-26T13:11:34.905Z,10.70
2019-04-26T13:12:35.773Z,9.80
2019-04-26T13:13:34.839Z,10.10
2019-04-26T13:14:34.816Z,11.00
2019-04-26T13:15:36.234Z,8.30
2019-04-26T13:16:36.675Z,8.80
2019-04-26T13:17:35.735Z,9.90
2019-04-26T13:18:34.805Z,6.90
2019-04-26T13:19:35.714Z,6.30
2019-04-26T13:20:34.747Z,8.90
2019-04-26T13:21:37.393Z,12.90
2019-04-26T13:22:45.261Z,7.30
2019-04-26T13:23:35.757Z,6.90
2019-04-26T13:24:35.515Z,11.40
2019-04-26T13:25:40.565Z,6.90
2019-04-26T13:26:36.438Z,6.30
2019-04-26T13:27:34.671Z,10.80
2019-04-26T13:28:34.679Z,10.00
2019-04-26T13:29:34.649Z,6.50
2019-04-26T13:30:34.642Z,11.40
2019-04-26T13:31:34.626Z,13.20
2019-04-26T13:32:34.619Z,7.20
2019-04-26T13:33:37.897Z,8.30
2019-04-26T13:34:37.203Z,10.60
2019-04-26T13:35:34.585Z,7.60
2019-04-26T13:36:34.587Z,7.70
2019-04-26T13:37:35.682Z,8.80
2019-04-26T13:38:34.553Z,9.50
2019-04-26T13:39:34.542Z,10.30
2019-04-26T13:40:34.533Z,6.70
2019-04-26T13:41:34.936Z,7.80
2019-04-26T13:42:34.511Z,9.60
2019-04-26T13:43:34.531Z,11.30
2019-04-26T13:44:35.687Z,8.60
2019-04-26T13:45:34.475Z,8.20
2019-04-26T13:46:34.476Z,6.00
2019-04-26T13:47:34.460Z,8.00
2019-04-26T13:48:34.470Z,5.90
2019-04-26T13:49:34.435Z,6.20
2019-04-26T13:50:34.418Z,8.30
2019-04-26T13:51:34.423Z,5.10
2019-04-26T13:52:34.408Z,11.80
2019-04-26T13:53:34.406Z,8.20
2019-04-26T13:54:34.384Z,5.90
2019-04-26T13:55:34.368Z,6.20
2019-04-26T13:56:35.948Z,11.80
2019-04-26T13:57:34.345Z,9.60
2019-04-26T13:58:34.460Z,5.20
2019-04-26T13:59:34.323Z,6.50
2019-04-26T14:00:34.316Z,6.00
2019-04-26T14:01:34.303Z,6.50
2019-04-26T14:02:34.303Z,4.50
2019-04-26T14:03:34.279Z,6.20
2019-04-26T14:04:37.186Z,9.70
2019-04-26T14:05:35.285Z,11.80
2019-04-26T14:06:34.257Z,6.30
2019-04-26T14:07:34.237Z,5.80
2019-04-26T14:08:34.225Z,8.10
2019-04-26T14:09:34.248Z,6.50
2019-04-26T14:10:34.204Z,4.90
2019-04-26T14:11:34.202Z,6.60
2019-04-26T14:12:34.197Z,8.10
2019-04-26T14:13:34.183Z,4.40
2019-04-26T14:14:35.233Z,9.30
2019-04-26T14:15:34.151Z,5.70
2019-04-26T14:16:34.146Z,7.30
2019-04-26T14:17:34.135Z,7.40
2019-04-26T14:18:34.602Z,4.90
2019-04-26T14:19:34.158Z,11.90
2019-04-26T14:20:34.098Z,5.40
2019-04-26T14:21:34.809Z,10.80
2019-04-26T14:22:36.966Z,5.50
2019-04-26T14:23:35.062Z,8.50
2019-04-26T14:24:34.087Z,5.60
2019-04-26T14:25:34.040Z,7.60
2019-04-26T14:26:35.348Z,6.40
2019-04-26T14:27:35.025Z,6.80
2019-04-26T14:28:34.008Z,5.40
2019-04-26T14:29:34.039Z,5.90
2019-04-26T14:30:37.460Z,8.90
2019-04-26T14:31:34.978Z,6.20
2019-04-26T14:32:33.967Z,6.90
2019-04-26T14:33:33.956Z,6.60
2019-04-26T14:34:36.141Z,10.40
2019-04-26T14:35:34.966Z,9.40
2019-04-26T14:36:33.920Z,5.80
2019-04-26T14:37:33.913Z,5.80
2019-04-26T14:38:39.331Z,5.20
2019-04-26T14:39:49.204Z,7.50
2019-04-26T14:40:34.950Z,7.10
2019-04-26T14:41:34.005Z,5.40
2019-04-26T14:42:38.127Z,5.90
2019-04-26T14:43:40.861Z,5.20
2019-04-26T14:44:34.837Z,5.50
2019-04-26T14:45:36.416Z,9.10
2019-04-26T14:46:33.819Z,4.80
2019-04-26T14:47:46.500Z,4.60
2019-04-26T14:48:36.160Z,6.60
2019-04-26T14:49:39.168Z,5.30
2019-04-26T14:50:34.791Z,7.90
2019-04-26T14:51:33.753Z,6.50
2019-04-26T14:52:33.749Z,5.80
2019-04-26T14:53:36.446Z,3.40
2019-04-26T14:54:33.724Z,12.00
2019-04-26T14:55:33.832Z,8.10
2019-04-26T14:56:33.711Z,7.00
2019-04-26T14:57:34.026Z,4.90
2019-04-26T14:58:33.778Z,4.80
2019-04-26T14:59:33.666Z,7.90
2019-04-26T15:00:33.994Z,8.10
2019-04-26T15:01:35.218Z,8.10
2019-04-26T15:02:33.631Z,4.60
2019-04-26T15:03:34.074Z,9.10
2019-04-26T15:04:33.611Z,9.10
2019-04-26T15:05:33.616Z,6.10
2019-04-26T15:06:33.591Z,6.20
2019-04-26T15:07:35.053Z,6.20
2019-04-26T15:08:34.572Z,11.20
2019-04-26T15:09:36.401Z,7.50
2019-04-26T15:10:43.427Z,5.30
2019-04-26T15:11:36.124Z,7.80
2019-04-26T15:12:45.682Z,5.20
2019-04-26T15:13:40.265Z,6.00
2019-04-26T15:14:34.528Z,7.60
2019-04-26T15:15:34.662Z,14.50
2019-04-26T15:16:33.477Z,6.40
2019-04-26T15:17:33.479Z,7.10
2019-04-26T15:18:36.963Z,12.50
2019-04-26T15:19:35.219Z,6.00
2019-04-26T15:20:33.468Z,8.70
2019-04-26T15:21:34.414Z,7.90
2019-04-26T15:22:33.408Z,14.60
2019-04-26T15:23:33.402Z,6.90
2019-04-26T15:24:35.061Z,9.10
2019-04-26T15:25:36.702Z,18.10
2019-04-26T15:26:33.370Z,6.40
2019-04-26T15:27:36.180Z,7.10
2019-04-26T15:28:33.345Z,6.40
2019-04-26T15:29:33.327Z,7.20
2019-04-26T15:30:41.576Z,8.20
2019-04-26T15:31:34.324Z,13.10
2019-04-26T15:32:35.255Z,6.20
2019-04-26T15:33:35.783Z,7.50
2019-04-26T15:34:33.272Z,7.20
2019-04-26T15:35:35.812Z,6.50
2019-04-26T15:36:33.261Z,7.20
2019-04-26T15:37:33.244Z,5.30
2019-04-26T15:38:41.179Z,10.60
2019-04-26T15:39:34.240Z,5.60
2019-04-26T15:40:35.087Z,7.70
2019-04-26T15:41:33.333Z,9.10
2019-04-26T15:42:33.187Z,7.80
2019-04-26T15:43:33.180Z,6.50
2019-04-26T15:44:33.177Z,4.70
2019-04-26T15:45:38.694Z,5.20
2019-04-26T15:46:34.139Z,6.70
2019-04-26T15:47:34.307Z,5.50
2019-04-26T15:48:33.122Z,7.60
2019-04-26T15:49:36.559Z,5.50
2019-04-26T15:50:33.122Z,7.20
2019-04-26T15:51:33.096Z,7.00
2019-04-26T15:52:34.128Z,9.60
2019-04-26T15:53:33.261Z,7.00
2019-04-26T15:54:33.067Z,8.00
2019-04-26T15:55:39.668Z,8.00
2019-04-26T15:56:34.031Z,8.50
2019-04-26T15:57:34.709Z,6.20
2019-04-26T15:58:33.011Z,9.80
2019-04-26T15:59:33.005Z,8.60
2019-04-26T16:00:35.471Z,9.50
2019-04-26T16:01:32.976Z,8.10
2019-04-26T16:02:32.963Z,4.40
2019-04-26T16:03:32.951Z,6.60
2019-04-26T16:04:32.950Z,6.00
2019-04-26T16:05:32.955Z,9.50
2019-04-26T16:06:32.935Z,9.40
2019-04-26T16:07:34.419Z,6.90
2019-04-26T16:08:33.992Z,6.10
2019-04-26T16:09:33.883Z,6.40
2019-04-26T16:10:36.796Z,8.30
2019-04-26T16:11:33.865Z,10.70
2019-04-26T16:12:32.857Z,6.30
2019-04-26T16:13:32.847Z,9.30
2019-04-26T16:14:36.503Z,7.40
2019-04-26T16:15:32.835Z,9.30
2019-04-26T16:16:34.549Z,5.50
2019-04-26T16:17:36.167Z,10.10
2019-04-26T16:18:33.789Z,9.30
2019-04-26T16:19:32.791Z,4.90
2019-04-26T16:20:37.538Z,9.00
2019-04-26T16:21:33.748Z,8.50
2019-04-26T16:22:33.201Z,5.80
2019-04-26T16:23:41.012Z,7.40
2019-04-26T16:24:34.513Z,10.20
2019-04-26T16:25:34.338Z,7.30
2019-04-26T16:26:33.695Z,6.50
2019-04-26T16:27:34.568Z,6.60
2019-04-26T16:28:33.319Z,6.90
2019-04-26T16:29:32.668Z,7.20
2019-04-26T16:30:37.340Z,6.90
2019-04-26T16:31:34.286Z,10.30
2019-04-26T16:32:34.490Z,12.80
2019-04-26T16:33:33.497Z,5.60
2019-04-26T16:34:32.604Z,8.60
2019-04-26T16:35:32.633Z,6.30
2019-04-26T16:36:36.722Z,9.90
2019-04-26T16:37:35.167Z,7.40
2019-04-26T16:38:33.090Z,10.20
2019-04-26T16:39:38.740Z,8.60
2019-04-26T16:40:33.559Z,13.70
2019-04-26T16:41:36.035Z,11.20
2019-04-26T16:42:33.513Z,9.10
2019-04-26T16:43:39.640Z,22.50
2019-04-26T16:44:33.605Z,13.40
2019-04-26T16:45:32.860Z,4.70
2019-04-26T16:46:33.323Z,8.60
2019-04-26T16:47:35.374Z,7.80
2019-04-26T16:48:33.441Z,8.20
2019-04-26T16:49:35.142Z,9.90
2019-04-26T16:50:37.189Z,10.90
2019-04-26T16:51:34.171Z,10.40
2019-04-26T16:52:33.676Z,9.20
2019-04-26T16:53:46.279Z,11.50
2019-04-26T16:54:34.230Z,8.10
2019-04-26T16:55:37.953Z,10.90
2019-04-26T16:56:36.016Z,11.90
2019-04-26T16:57:33.911Z,10.60
2019-04-26T16:58:38.272Z,10.00
2019-04-26T16:59:33.320Z,8.80
2019-04-26T17:00:50.065Z,8.00
2019-04-26T17:01:33.536Z,11.20
2019-04-26T17:02:36.354Z,13.80
2019-04-26T17:03:32.778Z,8.00
2019-04-26T17:04:36.075Z,13.30
2019-04-26T17:05:47.713Z,12.20
2019-04-26T17:06:33.258Z,8.90
2019-04-26T17:07:32.235Z,9.10
2019-04-26T17:08:32.217Z,12.20
2019-04-26T17:09:54.396Z,9.40
2019-04-26T17:10:33.224Z,5.20
2019-04-26T17:11:36.194Z,9.60
2019-04-26T17:12:33.206Z,12.20
2019-04-26T17:13:34.744Z,9.40
2019-04-26T17:14:34.159Z,8.90
2019-04-26T17:15:32.335Z,8.90
2019-04-26T17:16:36.941Z,8.70
2019-04-26T17:17:33.217Z,8.10
2019-04-26T17:18:32.441Z,9.30
2019-04-26T17:19:35.925Z,9.00
2019-04-26T17:20:33.984Z,7.20
2019-04-26T17:21:32.794Z,10.80
2019-04-26T17:22:42.509Z,8.00
2019-04-26T17:23:33.380Z,8.20
2019-04-26T17:24:32.046Z,7.90
2019-04-26T17:25:32.160Z,10.10
2019-04-26T17:26:33.613Z,7.60
2019-04-26T17:27:33.041Z,7.30
2019-04-26T17:28:32.569Z,11.30
2019-04-26T17:29:33.453Z,14.50
2019-04-26T17:30:34.449Z,8.00
2019-04-26T17:31:33.644Z,12.50
2019-04-26T17:32:31.965Z,9.50
2019-04-26T17:33:32.684Z,9.80
2019-04-26T17:34:33.633Z,7.50
2019-04-26T17:35:32.771Z,8.20
2019-04-26T17:36:34.334Z,9.70
2019-04-26T17:37:31.904Z,11.80
2019-04-26T17:38:35.186Z,10.00
2019-04-26T17:39:32.865Z,10.50
2019-04-26T17:40:36.776Z,8.40
2019-04-26T17:41:33.275Z,7.80
2019-04-26T17:42:36.531Z,11.90
2019-04-26T17:43:31.829Z,9.40
2019-04-26T17:44:34.061Z,9.70
2019-04-26T17:45:31.808Z,15.30
2019-04-26T17:46:32.672Z,10.40
2019-04-26T17:47:33.028Z,10.70
2019-04-26T17:48:33.613Z,9.10
2019-04-26T17:49:34.567Z,8.90
2019-04-26T17:50:35.469Z,9.00
2019-04-26T17:51:41.709Z,13.80
2019-04-26T17:52:35.994Z,12.20
2019-04-26T17:53:33.681Z,7.60
2019-04-26T17:54:46.134Z,12.60
2019-04-26T17:55:33.683Z,9.30
2019-04-26T17:56:35.369Z,15.10
2019-04-26T17:57:36.751Z,8.00
2019-04-26T17:58:34.351Z,14.70
2019-04-26T17:59:34.709Z,19.00
2019-04-26T18:00:45.568Z,9.40
2019-04-26T18:01:43.091Z,9.10
2019-04-26T18:02:42.030Z,11.80
2019-04-26T18:03:32.869Z,11.70
2019-04-26T18:04:36.615Z,8.50
2019-04-26T18:05:45.055Z,19.40
2019-04-26T18:06:32.601Z,14.30
2019-04-26T18:07:40.770Z,18.80
2019-04-26T18:08:39.683Z,6.70
2019-04-26T18:09:44.708Z,12.00
2019-04-26T18:10:35.631Z,11.40
2019-04-26T18:11:33.024Z,9.70
2019-04-26T18:12:32.699Z,12.30
2019-04-26T18:13:32.488Z,10.70
2019-04-26T18:14:32.123Z,8.40
2019-04-26T18:15:33.257Z,11.30
2019-04-26T18:16:32.908Z,10.20
2019-04-26T18:17:33.015Z,6.80
2019-04-26T18:18:34.024Z,11.00
2019-04-26T18:19:33.376Z,10.00
2019-04-26T18:20:31.420Z,5.70
2019-04-26T18:21:31.428Z,10.70
2019-04-26T18:22:34.554Z,8.90
2019-04-26T18:23:31.378Z,8.30
2019-04-26T18:24:32.287Z,7.80
2019-04-26T18:25:31.355Z,10.00
2019-04-26T18:26:32.772Z,9.20
2019-04-26T18:27:35.710Z,11.20
2019-04-26T18:28:33.662Z,11.30
2019-04-26T18:29:33.593Z,10.80
2019-04-26T18:30:32.990Z,6.70
2019-04-26T18:31:33.470Z,7.50
2019-04-26T18:32:33.976Z,6.00
2019-04-26T18:33:32.848Z,9.60
2019-04-26T18:34:37.168Z,7.80
2019-04-26T18:35:33.747Z,7.10
2019-04-26T18:36:31.908Z,9.20
2019-04-26T18:37:31.232Z,6.70